Time;durP1;ratioP1;P1;durP2;ratioP2;P2;SDS_P1;SDS_P2;PMS_P1;PMS_P2;Temp;Humidity;BMP_temperature;BMP_pressure;BME280_temperature;BME280_humidity;BME280_pressure;Samples;Min_cycle;Max_cycle;Signal;HPM_P1;HPM_P2
2023/05/05 00:02:24;;;;;;;10.43;7.25;;;15.50;1.00;;;;;;7368878;19;20518;-74
2023/05/05 00:04:57;;;;;;;14.90;8.05;;;15.50;1.00;;;;;;7367619;19;20031;-73
2023/05/05 00:07:27;;;;;;;13.07;7.93;;;15.60;1.00;;;;;;7369471;19;20011;-75
2023/05/05 00:09:57;;;;;;;11.57;7.32;;;15.60;1.00;;;;;;7386709;19;20364;-74
2023/05/05 00:12:27;;;;;;;11.70;8.18;;;15.70;1.00;;;;;;7343611;19;20007;-74
2023/05/05 00:14:57;;;;;;;11.02;7.90;;;15.70;1.00;;;;;;7384020;19;20010;-75
2023/05/05 00:17:27;;;;;;;13.00;8.38;;;15.80;1.00;;;;;;7367488;19;20509;-74
2023/05/05 00:19:59;;;;;;;12.07;7.85;;;15.80;1.00;;;;;;7365502;19;20510;-75
2023/05/05 00:22:30;;;;;;;17.95;8.63;;;15.80;1.00;;;;;;7368349;19;20090;-75
2023/05/05 00:25:00;;;;;;;13.70;8.30;;;15.80;1.00;;;;;;7365996;19;20114;-75
2023/05/05 00:27:30;;;;;;;11.27;7.97;;;15.80;1.00;;;;;;7365787;19;20021;-75
2023/05/05 00:29:59;;;;;;;11.10;7.30;;;15.90;1.00;;;;;;7387767;19;20344;-75
2023/05/05 00:32:30;;;;;;;11.43;7.07;;;15.90;1.00;;;;;;7368879;19;20038;-75
2023/05/05 00:35:02;;;;;;;9.93;6.82;;;15.90;1.00;;;;;;7367105;19;20039;-75
2023/05/05 00:37:32;;;;;;;9.50;6.75;;;15.90;1.00;;;;;;7367444;19;20014;-75
2023/05/05 00:40:02;;;;;;;10.68;6.82;;;15.80;1.00;;;;;;7365768;19;20014;-75
2023/05/05 00:42:41;;;;;;;8.77;6.30;;;15.80;1.00;;;;;;7369682;19;20010;-74
2023/05/05 00:45:12;;;;;;;8.45;6.50;;;15.80;1.00;;;;;;7388785;19;20011;-74
2023/05/05 00:47:44;;;;;;;11.80;6.75;;;15.80;1.00;;;;;;7366559;19;20095;-74
2023/05/05 00:50:23;;;;;;;10.73;6.85;;;15.80;1.00;;;;;;7365248;19;20014;-74
2023/05/05 00:52:55;;;;;;;9.85;6.57;;;15.70;1.00;;;;;;7368503;19;20027;-74
2023/05/05 00:55:26;;;;;;;13.32;6.72;;;15.70;1.00;;;;;;7366454;19;20011;-74
2023/05/05 00:57:56;;;;;;;13.18;7.07;;;15.70;1.00;;;;;;7366709;19;20015;-73
2023/05/05 01:00:27;;;;;;;10.73;7.45;;;15.60;1.00;;;;;;7366437;19;20024;-74
2023/05/05 01:02:57;;;;;;;8.27;6.70;;;15.60;1.00;;;;;;7390202;19;20478;-74
2023/05/05 01:05:35;;;;;;;9.30;6.65;;;15.60;1.00;;;;;;7364665;19;20025;-76
2023/05/05 01:08:20;;;;;;;8.63;7.20;;;15.50;1.00;;;;;;7366757;19;20416;-74
2023/05/05 01:10:54;;;;;;;;;;;15.50;1.00;;;;;;7365883;19;20685;-73
2023/05/05 01:13:32;;;;;;;12.00;7.68;;;15.50;1.00;;;;;;7367254;19;19926;-74
2023/05/05 01:16:09;;;;;;;10.02;7.45;;;15.50;1.00;;;;;;7367058;19;20465;-75
2023/05/05 01:18:47;;;;;;;12.18;7.70;;;15.40;1.00;;;;;;7365691;19;20378;-74
2023/05/05 01:21:25;;;;;;;10.77;7.25;;;15.40;1.00;;;;;;7364263;19;20487;-73
2023/05/05 01:24:24;;;;;;;9.55;7.05;;;15.40;1.00;;;;;;7387805;19;20014;-74
2023/05/05 01:27:17;;;;;;;10.82;7.55;;;15.30;1.00;;;;;;7366622;19;20026;-74
2023/05/05 01:30:10;;;;;;;12.10;7.05;;;15.30;1.00;;;;;;7364719;19;20025;-73
2023/05/05 01:32:46;;;;;;;10.65;7.13;;;15.30;1.00;;;;;;7368217;19;20025;-74
2023/05/05 01:35:22;;;;;;;10.20;7.55;;;15.30;1.00;;;;;;7365892;19;20458;-74
2023/05/05 01:37:56;;;;;;;9.88;6.97;;;15.20;1.00;;;;;;7365787;19;20092;-74
2023/05/05 01:40:29;;;;;;;11.97;7.37;;;15.10;1.00;;;;;;7365367;19;20018;-74
2023/05/05 01:43:02;;;;;;;12.15;7.78;;;15.10;1.00;;;;;;7366853;19;20635;-74
2023/05/05 01:45:37;;;;;;;8.98;7.50;;;15.10;1.00;;;;;;7366196;19;20021;-73
2023/05/05 01:48:11;;;;;;;11.75;7.70;;;15.00;1.00;;;;;;7386560;19;20021;-74
2023/05/05 01:50:45;;;;;;;13.30;8.27;;;15.00;1.00;;;;;;7364828;19;20007;-75
2023/05/05 01:53:16;;;;;;;10.93;8.18;;;15.00;1.00;;;;;;7366318;19;20358;-73
2023/05/05 01:55:49;;;;;;;13.10;8.23;;;14.90;1.00;;;;;;7366817;19;20038;-74
2023/05/05 01:58:19;;;;;;;12.90;8.40;;;15.00;1.00;;;;;;7364242;19;20010;-75
2023/05/05 02:00:50;;;;;;;17.25;9.10;;;15.00;1.00;;;;;;7365538;19;20011;-75
2023/05/05 02:03:25;;;;;;;13.52;7.88;;;15.00;1.00;;;;;;7366792;19;20494;-74
2023/05/05 02:05:56;;;;;;;9.65;8.55;;;14.90;1.00;;;;;;7389150;19;20011;-75
2023/05/05 02:08:28;;;;;;;12.82;8.55;;;14.90;1.00;;;;;;7363239;19;20010;-74
2023/05/05 02:10:59;;;;;;;12.20;8.50;;;15.00;1.00;;;;;;7365553;19;20007;-75
2023/05/05 02:13:31;;;;;;;12.75;8.68;;;15.00;1.00;;;;;;7366389;19;20025;-75
2023/05/05 02:16:01;;;;;;;13.57;9.18;;;15.00;1.00;;;;;;7366022;19;20017;-75
2023/05/05 02:18:35;;;;;;;11.80;8.50;;;15.00;1.00;;;;;;7367920;19;20011;-75
2023/05/05 02:21:06;;;;;;;11.98;8.07;;;15.00;1.00;;;;;;7392771;19;20021;-74
2023/05/05 02:23:36;;;;;;;12.20;7.85;;;14.90;1.00;;;;;;7372996;19;20521;-74
2023/05/05 02:26:10;;;;;;;11.40;7.65;;;14.90;1.00;;;;;;7373502;19;20014;-74
2023/05/05 02:28:43;;;;;;;10.88;7.35;;;14.90;1.00;;;;;;7370635;19;20013;-74
2023/05/05 02:31:15;;;;;;;11.68;8.10;;;14.90;1.00;;;;;;7371695;19;20018;-75
2023/05/05 02:33:50;;;;;;;10.07;7.68;;;14.80;1.00;;;;;;7372808;19;20021;-74
2023/05/05 02:36:23;;;;;;;8.68;7.10;;;14.80;1.00;;;;;;7370158;19;20395;-74
2023/05/05 02:38:57;;;;;;;11.30;7.40;;;14.80;1.00;;;;;;7391712;19;20039;-72
2023/05/05 02:41:28;;;;;;;12.10;8.63;;;14.80;1.00;;;;;;7372775;19;20010;-74
2023/05/05 02:44:01;;;;;;;13.50;8.23;;;14.70;1.00;;;;;;7371925;19;20066;-74
2023/05/05 02:46:31;;;;;;;13.45;8.07;;;14.70;1.00;;;;;;7372940;19;20059;-74
2023/05/05 02:49:03;;;;;;;12.95;8.23;;;14.60;1.00;;;;;;7369015;19;20344;-74
2023/05/05 02:51:33;;;;;;;11.63;7.60;;;14.50;1.00;;;;;;7372747;19;20023;-74
2023/05/05 02:54:04;;;;;;;10.00;6.93;;;14.50;1.00;;;;;;7393837;19;20502;-73
2023/05/05 02:56:42;;;;;;;11.35;7.28;;;14.50;1.00;;;;;;7370913;19;20502;-72
2023/05/05 02:59:16;;;;;;;10.63;6.72;;;14.50;1.00;;;;;;7368135;19;20010;-73
2023/05/05 03:01:55;;;;;;;7.85;6.65;;;14.50;1.00;;;;;;7371789;19;20031;-73
2023/05/05 03:04:33;;;;;;;9.95;7.28;;;14.50;1.00;;;;;;7372187;19;20387;-74
2023/05/05 03:07:12;;;;;;;8.23;6.28;;;14.40;1.00;;;;;;7372477;19;20014;-73
2023/05/05 03:09:48;;;;;;;8.38;6.68;;;14.40;1.00;;;;;;7369865;19;20037;-73
2023/05/05 03:12:22;;;;;;;7.68;6.68;;;14.30;1.00;;;;;;7372275;19;20018;-74
2023/05/05 03:14:53;;;;;;;;;;;14.20;1.00;;;;;;7391933;19;20033;-74
2023/05/05 03:17:25;;;;;;;10.13;7.35;;;14.20;1.00;;;;;;7370169;19;19943;-74
2023/05/05 03:19:58;;;;;;;10.55;7.05;;;14.20;1.00;;;;;;7368807;19;20018;-74
2023/05/05 03:22:32;;;;;;;8.48;6.72;;;14.20;1.00;;;;;;7371903;19;20030;-75
2023/05/05 03:25:02;;;;;;;8.30;7.07;;;14.10;1.00;;;;;;7370621;19;20041;-74
2023/05/05 03:27:32;;;;;;;9.57;7.13;;;14.10;1.00;;;;;;7370007;19;20055;-73
2023/05/05 03:30:02;;;;;;;11.68;7.63;;;14.10;1.00;;;;;;7389336;19;20010;-74
2023/05/05 03:32:32;;;;;;;9.13;7.05;;;14.10;1.00;;;;;;7370766;19;20011;-74
2023/05/05 03:35:04;;;;;;;11.63;6.57;;;14.10;1.00;;;;;;7370316;19;20017;-74
2023/05/05 03:37:34;;;;;;;7.90;6.60;;;14.10;1.00;;;;;;7369332;19;20010;-74
2023/05/05 03:40:05;;;;;;;9.55;6.55;;;14.10;1.00;;;;;;7369829;19;20478;-74
2023/05/05 03:42:35;;;;;;;8.32;7.10;;;14.10;1.00;;;;;;7371504;19;20019;-74
2023/05/05 03:45:05;;;;;;;9.07;6.55;;;14.20;1.00;;;;;;7392716;19;20043;-73
2023/05/05 03:47:36;;;;;;;7.78;6.28;;;14.10;1.00;;;;;;7369095;19;20029;-73
2023/05/05 03:50:10;;;;;;;8.85;6.40;;;14.20;1.00;;;;;;7368293;19;20034;-72
2023/05/05 03:52:40;;;;;;;8.35;6.72;;;14.20;1.00;;;;;;7372057;19;20662;-74
2023/05/05 03:55:11;;;;;;;8.45;6.63;;;14.20;1.00;;;;;;7370817;19;20412;-73
2023/05/05 03:57:40;;;;;;;8.60;6.50;;;14.20;1.00;;;;;;7370755;19;20429;-74
2023/05/05 04:00:12;;;;;;;9.30;6.32;;;14.20;1.00;;;;;;7389872;19;20021;-74
2023/05/05 04:02:42;;;;;;;8.77;6.47;;;14.20;1.00;;;;;;7369274;19;20493;-74
2023/05/05 04:05:14;;;;;;;8.00;6.43;;;14.20;1.00;;;;;;7377579;19;20010;-73
2023/05/05 04:07:44;;;;;;;8.63;6.88;;;14.20;1.00;;;;;;7400345;19;19999;-74
2023/05/05 04:10:14;;;;;;;9.10;6.65;;;14.20;1.00;;;;;;7392638;19;20067;-73
2023/05/05 04:12:45;;;;;;;9.57;7.10;;;14.20;1.00;;;;;;7397049;19;20055;-73
2023/05/05 04:15:15;;;;;;;7.15;6.05;;;14.20;1.00;;;;;;7400464;19;20014;-72
2023/05/05 04:17:44;;;;;;;8.88;6.90;;;14.20;1.00;;;;;;7370470;19;20312;-74
2023/05/05 04:20:17;;;;;;;13.10;6.65;;;14.30;1.00;;;;;;7366442;19;20027;-74
2023/05/05 04:22:47;;;;;;;8.57;7.00;;;14.40;1.00;;;;;;7369288;19;20017;-74
2023/05/05 04:25:20;;;;;;;8.50;6.55;;;14.50;1.00;;;;;;7368240;19;20052;-73
2023/05/05 04:27:50;;;;;;;9.30;5.93;;;15.40;1.00;;;;;;7367373;19;20501;-73
2023/05/05 04:30:20;;;;;;;9.38;6.05;;;16.00;1.00;;;;;;7367030;19;20018;-73
2023/05/05 04:32:50;;;;;;;7.28;5.82;;;15.50;1.00;;;;;;7390760;19;20022;-74
2023/05/05 04:35:23;;;;;;;9.90;6.50;;;15.40;1.00;;;;;;7368147;19;20633;-74
2023/05/05 04:37:54;;;;;;;11.23;6.70;;;15.30;1.00;;;;;;7368018;19;20018;-75
2023/05/05 04:40:25;;;;;;;8.32;6.30;;;15.90;1.00;;;;;;7365621;19;20364;-73
2023/05/05 04:42:54;;;;;;;8.32;7.10;;;16.20;1.00;;;;;;7368173;19;20021;-74
2023/05/05 04:45:24;;;;;;;13.27;7.28;;;17.10;1.00;;;;;;7368701;19;20026;-75
2023/05/05 04:47:54;;;;;;;11.32;6.93;;;17.80;1.00;;;;;;7389159;19;20490;-73
2023/05/05 04:50:27;;;;;;;10.45;7.20;;;17.20;1.00;;;;;;7365763;19;20025;-74
2023/05/05 04:52:57;;;;;;;9.18;7.93;;;16.60;1.00;;;;;;7368781;19;20514;-74
2023/05/05 04:55:26;;;;;;;12.52;7.82;;;15.80;1.00;;;;;;7368405;19;20034;-75
2023/05/05 04:57:56;;;;;;;9.80;8.02;;;15.50;1.00;;;;;;7365720;19;20007;-74
2023/05/05 05:00:26;;;;;;;12.75;8.02;;;15.30;1.00;;;;;;7365251;19;20473;-74
2023/05/05 05:02:56;;;;;;;11.02;8.13;;;15.60;1.00;;;;;;7389813;19;20010;-75
2023/05/05 05:05:29;;;;;;;10.27;8.18;;;15.30;1.00;;;;;;7366193;19;20525;-74
2023/05/05 05:07:59;;;;;;;9.95;8.50;;;14.80;1.00;;;;;;7366886;19;20026;-73
2023/05/05 05:10:29;;;;;;;12.48;8.40;;;14.90;1.00;;;;;;7365862;19;20021;-74
2023/05/05 05:12:59;;;;;;;14.38;8.50;;;15.50;1.00;;;;;;7367799;19;20021;-75
2023/05/05 05:15:29;;;;;;;13.35;8.68;;;15.90;1.00;;;;;;7366086;19;20037;-74
2023/05/05 05:17:59;;;;;;;10.55;8.07;;;18.00;1.00;;;;;;7386615;19;20014;-75
2023/05/05 05:20:32;;;;;;;10.77;8.00;;;19.40;1.00;;;;;;7365568;19;20027;-73
2023/05/05 05:23:03;;;;;;;10.77;7.70;;;20.10;1.00;;;;;;7367254;19;20014;-74
2023/05/05 05:25:33;;;;;;;15.15;9.05;;;20.00;1.00;;;;;;7364797;19;20019;-74
2023/05/05 05:28:02;;;;;;;10.48;8.52;;;17.80;1.00;;;;;;7364974;19;20018;-75
2023/05/05 05:30:39;;;;;;;16.88;8.98;;;17.20;1.00;;;;;;7366388;19;20018;-74
2023/05/05 05:33:09;;;;;;;11.07;8.25;;;16.40;1.00;;;;;;7389813;19;20386;-74
2023/05/05 05:35:42;;;;;;;12.85;8.10;;;16.10;1.00;;;;;;7366718;19;20006;-74
2023/05/05 05:38:11;;;;;;;12.15;8.75;;;16.00;1.00;;;;;;7363942;19;20083;-74
2023/05/05 05:40:41;;;;;;;14.18;9.10;;;15.90;1.00;;;;;;7366226;19;20099;-74
2023/05/05 05:43:11;;;;;;;16.83;9.18;;;17.30;1.00;;;;;;7366242;19;20526;-75
2023/05/05 05:45:41;;;;;;;14.60;9.45;;;19.10;1.00;;;;;;7366106;19;20018;-73
2023/05/05 05:48:11;;;;;;;13.88;9.15;;;18.70;1.00;;;;;;7386469;19;20082;-74
2023/05/05 05:50:43;;;;;;;13.73;9.18;;;18.10;1.00;;;;;;7364647;19;20019;-75
2023/05/05 05:53:13;;;;;;;13.18;9.40;;;18.00;1.00;;;;;;7370945;19;20015;-74
2023/05/05 05:55:43;;;;;;;13.13;9.70;;;18.00;1.00;;;;;;7373205;19;20398;-74
2023/05/05 05:58:13;;;;;;;14.88;9.13;;;17.90;1.00;;;;;;7369999;19;20010;-74
2023/05/05 06:00:43;;;;;;;12.25;9.00;;;18.10;1.00;;;;;;7371570;19;20490;-74
2023/05/05 06:03:13;;;;;;;10.48;7.65;;;18.50;1.00;;;;;;7392815;19;20891;-74
2023/05/05 06:05:46;;;;;;;12.38;6.90;;;18.70;1.00;;;;;;7372818;19;20002;-75
2023/05/05 06:08:16;;;;;;;8.52;6.53;;;18.90;1.00;;;;;;7371112;19;20034;-74
2023/05/05 06:10:47;;;;;;;9.90;6.60;;;18.50;1.00;;;;;;7373061;19;20470;-74
2023/05/05 06:13:16;;;;;;;11.63;6.90;;;18.60;1.00;;;;;;7373873;19;20021;-75
2023/05/05 06:15:46;;;;;;;11.60;6.28;;;18.80;1.00;;;;;;7372624;19;20015;-75
2023/05/05 06:18:16;;;;;;;9.98;6.15;;;18.50;1.00;;;;;;7376328;19;20010;-73
2023/05/05 06:20:51;;;;;;;10.57;6.07;;;18.40;1.00;;;;;;7392784;19;20017;-74
2023/05/05 06:23:21;;;;;;;7.88;6.43;;;18.40;1.00;;;;;;7372109;19;20030;-74
2023/05/05 06:25:52;;;;;;;11.77;6.25;;;18.40;1.00;;;;;;7372784;19;20088;-74
2023/05/05 06:28:22;;;;;;;16.90;7.30;;;18.40;1.00;;;;;;7371049;19;20037;-74
2023/05/05 06:30:53;;;;;;;8.82;5.97;;;18.50;1.00;;;;;;7370275;19;20025;-75
2023/05/05 06:33:23;;;;;;;11.07;6.15;;;18.80;1.00;;;;;;7373161;19;20022;-74
2023/05/05 06:35:56;;;;;;;10.80;5.03;;;19.20;1.00;;;;;;7393867;19;20038;-73
2023/05/05 06:38:26;;;;;;;8.18;4.20;;;19.30;1.00;;;;;;7367582;19;20513;-74
2023/05/05 06:40:57;;;;;;;9.38;5.35;;;19.40;1.00;;;;;;7369976;19;20354;-73
2023/05/05 06:43:27;;;;;;;9.63;4.22;;;19.70;1.00;;;;;;7370130;19;20130;-73
2023/05/05 06:45:57;;;;;;;5.82;3.35;;;19.90;1.00;;;;;;7372109;19;20019;-72
2023/05/05 06:48:26;;;;;;;7.45;4.07;;;19.70;1.00;;;;;;7369305;19;20015;-73
2023/05/05 06:50:59;;;;;;;4.43;3.55;;;19.50;1.00;;;;;;7390129;19;20029;-71
2023/05/05 06:53:29;;;;;;;6.45;3.38;;;19.40;1.00;;;;;;7369958;19;20014;-73
2023/05/05 06:55:59;;;;;;;7.53;4.25;;;19.40;1.00;;;;;;7370518;19;20019;-75
2023/05/05 06:58:28;;;;;;;6.32;4.00;;;19.50;1.00;;;;;;7366983;19;20014;-72
2023/05/05 07:00:58;;;;;;;7.55;3.90;;;19.40;1.00;;;;;;7369104;19;20032;-73
2023/05/05 07:03:29;;;;;;;6.95;3.45;;;19.40;1.00;;;;;;7368608;19;20026;-72
2023/05/05 07:06:05;;;;;;;4.20;3.20;;;19.50;1.00;;;;;;7391305;19;20025;-73
2023/05/05 07:08:35;;;;;;;4.72;3.20;;;19.00;1.00;;;;;;7368315;19;20102;-72
2023/05/05 07:11:05;;;;;;;8.25;3.60;;;19.20;1.00;;;;;;7370105;19;20053;-72
2023/05/05 07:13:35;;;;;;;8.23;3.33;;;19.10;1.00;;;;;;7371603;19;20042;-73
2023/05/05 07:16:06;;;;;;;13.38;3.88;;;19.30;1.00;;;;;;7371722;19;20014;-73
2023/05/05 07:18:36;;;;;;;8.55;4.03;;;19.50;1.00;;;;;;7369029;19;20027;-72
2023/05/05 07:21:08;;;;;;;5.72;3.33;;;19.60;1.00;;;;;;7391271;19;20025;-72
2023/05/05 07:23:39;;;;;;;9.18;3.35;;;19.50;1.00;;;;;;7368029;19;20010;-73
2023/05/05 07:26:09;;;;;;;4.13;2.83;;;19.20;1.00;;;;;;7369500;19;20014;-74
2023/05/05 07:28:39;;;;;;;9.95;3.53;;;19.50;1.00;;;;;;7388498;19;20028;-74
2023/05/05 07:31:09;;;;;;;17.92;4.55;;;19.60;1.00;;;;;;7402912;19;20002;-74
2023/05/05 07:33:39;;;;;;;6.45;4.03;;;19.70;1.00;;;;;;7398678;19;20019;-73
2023/05/05 07:36:11;;;;;;;4.18;3.53;;;19.30;1.00;;;;;;7393503;19;20011;-75
2023/05/05 07:38:41;;;;;;;4.93;3.38;;;19.50;1.00;;;;;;7366612;19;20017;-75
2023/05/05 07:41:12;;;;;;;6.38;3.08;;;19.50;1.00;;;;;;7368257;19;20113;-73
2023/05/05 07:43:42;;;;;;;3.20;2.80;;;19.40;1.00;;;;;;7370123;19;20035;-75
2023/05/05 07:46:13;;;;;;;5.60;2.75;;;19.60;1.00;;;;;;7371213;19;20478;-75
2023/05/05 07:48:43;;;;;;;6.15;3.22;;;19.90;1.00;;;;;;7367022;19;20031;-75
2023/05/05 07:51:16;;;;;;;6.10;3.45;;;19.80;1.00;;;;;;7389786;19;20011;-74
2023/05/05 07:53:46;;;;;;;4.53;3.13;;;19.80;1.00;;;;;;7369151;19;20364;-74
2023/05/05 07:56:16;;;;;;;6.85;2.72;;;19.80;1.00;;;;;;7368897;19;20022;-74
2023/05/05 07:58:46;;;;;;;4.10;2.80;;;19.80;1.00;;;;;;7363349;19;20379;-73
2023/05/05 08:01:15;;;;;;;7.45;3.30;;;19.80;1.00;;;;;;7368074;19;20064;-74
2023/05/05 08:03:45;;;;;;;6.82;2.83;;;19.80;1.00;;;;;;7367837;19;20010;-74
2023/05/05 08:06:20;;;;;;;6.82;2.85;;;19.70;1.00;;;;;;7387898;19;20469;-73
2023/05/05 08:08:52;;;;;;;6.25;3.05;;;19.80;1.00;;;;;;7388375;19;20007;-74
2023/05/05 08:11:22;;;;;;;9.30;2.63;;;20.10;1.00;;;;;;7367780;19;20044;-74
2023/05/05 08:13:52;;;;;;;4.78;2.75;;;20.30;1.00;;;;;;7369050;19;20025;-75
2023/05/05 08:16:21;;;;;;;4.20;2.80;;;20.30;1.00;;;;;;7368329;19;20014;-74
2023/05/05 08:18:51;;;;;;;5.97;2.80;;;20.20;1.00;;;;;;7364660;19;20018;-74
2023/05/05 08:21:24;;;;;;;7.53;2.45;;;20.00;1.00;;;;;;7367945;19;20367;-75
2023/05/05 08:23:54;;;;;;;7.78;3.90;;;19.90;1.00;;;;;;7390669;19;20494;-74
2023/05/05 08:26:24;;;;;;;4.47;3.05;;;20.00;1.00;;;;;;7368733;19;20332;-73
2023/05/05 08:28:59;;;;;;;4.85;2.83;;;19.90;1.00;;;;;;7366796;19;20021;-74
2023/05/05 08:31:29;;;;;;;6.47;2.90;;;20.00;1.00;;;;;;7367212;19;20135;-75
2023/05/05 08:33:59;;;;;;;4.93;2.92;;;19.70;1.00;;;;;;7369306;19;20034;-74
2023/05/05 08:36:32;;;;;;;6.97;2.85;;;19.70;1.00;;;;;;7368302;19;20617;-75
2023/05/05 08:39:02;;;;;;;4.78;2.33;;;19.70;1.00;;;;;;7388350;19;20055;-74
2023/05/05 08:41:32;;;;;;;7.10;2.83;;;19.60;1.00;;;;;;7366605;19;20011;-74
2023/05/05 08:44:03;;;;;;;3.30;2.65;;;19.60;1.00;;;;;;7367827;19;20506;-73
2023/05/05 08:46:33;;;;;;;7.35;3.50;;;19.40;1.00;;;;;;7367391;19;20474;-74
2023/05/05 08:49:04;;;;;;;4.93;3.05;;;19.50;1.00;;;;;;7366589;19;20003;-74
2023/05/05 08:51:44;;;;;;;5.18;2.90;;;19.20;1.00;;;;;;7365939;19;20035;-75
2023/05/05 08:54:19;;;;;;;3.13;2.63;;;19.10;1.00;;;;;;7389470;19;20014;-75
2023/05/05 08:56:52;;;;;;;5.75;3.10;;;19.10;1.00;;;;;;7366843;19;20091;-76
2023/05/05 08:59:24;;;;;;;6.05;3.83;;;19.10;1.00;;;;;;7364651;19;20010;-76
2023/05/05 09:01:55;;;;;;;8.63;3.40;;;19.10;1.00;;;;;;7367413;19;20547;-75
2023/05/05 09:04:25;;;;;;;4.43;2.83;;;19.20;1.00;;;;;;7367548;19;20756;-76
2023/05/05 09:06:59;;;;;;;5.35;3.28;;;19.10;1.00;;;;;;7366723;19;20101;-76
2023/05/05 09:09:29;;;;;;;8.65;3.33;;;19.00;1.00;;;;;;7366541;19;20010;-75
2023/05/05 09:12:01;;;;;;;9.07;3.30;;;19.10;1.00;;;;;;7392125;19;20059;-76
2023/05/05 09:14:31;;;;;;;10.00;3.50;;;19.30;1.00;;;;;;7369234;19;20014;-75
2023/05/05 09:17:01;;;;;;;7.43;3.15;;;19.50;1.00;;;;;;7368504;19;20024;-76
2023/05/05 09:19:31;;;;;;;5.95;2.80;;;19.50;1.00;;;;;;7367574;19;20501;-75
2023/05/05 09:22:04;;;;;;;4.68;2.90;;;19.60;1.00;;;;;;7370217;19;20095;-76
2023/05/05 09:24:33;;;;;;;5.70;2.85;;;19.60;1.00;;;;;;7368796;19;20478;-76
2023/05/05 09:27:23;;;;;;;5.15;2.70;;;19.80;1.00;;;;;;7387542;19;20025;-76
2023/05/05 09:29:53;;;;;;;4.75;2.40;;;19.80;1.00;;;;;;7365357;19;20151;-74
2023/05/05 09:32:23;;;;;;;3.10;2.35;;;20.10;1.00;;;;;;7368917;19;20011;-76
2023/05/05 09:35:00;;;;;;;5.57;2.70;;;20.00;1.00;;;;;;7367162;19;20042;-75
2023/05/05 09:37:33;;;;;;;4.18;2.30;;;20.10;1.00;;;;;;7367953;19;20393;-76
2023/05/05 09:40:04;;;;;;;10.48;3.00;;;20.10;1.00;;;;;;7365969;19;20006;-74
2023/05/05 09:42:34;;;;;;;4.82;2.47;;;20.20;1.00;;;;;;7368389;19;20015;-74
2023/05/05 09:45:04;;;;;;;26.60;18.70;;;20.20;1.00;;;;;;7389594;19;20086;-75
2023/05/05 09:47:37;;;;;;;4.40;2.53;;;20.50;1.00;;;;;;7366069;19;20018;-75
2023/05/05 09:50:10;;;;;;;6.53;2.53;;;20.60;1.00;;;;;;7364291;19;20016;-74
2023/05/05 09:52:42;;;;;;;5.70;2.33;;;20.90;1.00;;;;;;7368338;19;20807;-74
2023/05/05 09:55:19;;;;;;;3.35;1.80;;;20.80;1.00;;;;;;7367824;19;20022;-74
2023/05/05 09:57:49;;;;;;;5.35;2.10;;;20.80;1.00;;;;;;7366476;19;20007;-74
2023/05/05 10:00:19;;;;;;;4.47;2.33;;;20.50;1.00;;;;;;7366168;19;20013;-74
2023/05/05 10:02:50;;;;;;;10.15;5.47;;;20.80;1.00;;;;;;7388750;19;20013;-75
2023/05/05 10:05:20;;;;;;;5.93;4.15;;;20.80;1.00;;;;;;7365705;19;20474;-75
2023/05/05 10:07:53;;;;;;;6.43;2.60;;;21.10;1.00;;;;;;7364250;19;20026;-74
2023/05/05 10:10:23;;;;;;;4.28;3.67;;;20.80;1.00;;;;;;7364773;19;20018;-75
2023/05/05 10:12:53;;;;;;;3.25;2.20;;;20.80;1.00;;;;;;7364822;19;20034;-74
2023/05/05 10:15:24;;;;;;;5.32;2.17;;;20.90;1.00;;;;;;7365042;19;20474;-74
2023/05/05 10:17:56;;;;;;;4.43;2.97;;;20.80;1.00;;;;;;7385520;19;20470;-74
2023/05/05 10:20:37;;;;;;;5.38;2.25;;;21.00;1.00;;;;;;7362540;19;20018;-74
2023/05/05 10:23:16;;;;;;;4.10;2.00;;;21.00;1.00;;;;;;7364867;19;20361;-73
2023/05/05 10:25:55;;;;;;;2.70;1.77;;;20.50;1.00;;;;;;7365588;19;20070;-74
2023/05/05 10:28:30;;;;;;;3.17;1.70;;;20.90;1.00;;;;;;7361972;19;20497;-75
2023/05/05 10:31:03;;;;;;;7.18;2.05;;;20.80;1.00;;;;;;7361418;19;20034;-75
2023/05/05 10:33:55;;;;;;;2.63;1.90;;;20.70;1.00;;;;;;7363194;19;20017;-74
2023/05/05 10:36:26;;;;;;;3.45;2.00;;;20.50;1.00;;;;;;7363430;19;20514;-75
2023/05/05 10:39:01;;;;;;;4.25;2.03;;;20.50;1.00;;;;;;7386159;19;20015;-75
2023/05/05 10:41:32;;;;;;;6.05;2.22;;;20.70;1.00;;;;;;7370562;19;20014;-75
2023/05/05 10:44:02;;;;;;;4.97;2.50;;;20.60;1.00;;;;;;7367622;19;20443;-75
2023/05/05 10:46:33;;;;;;;2.80;1.90;;;20.60;1.00;;;;;;7370888;19;20680;-75
2023/05/05 10:49:11;;;;;;;3.50;2.17;;;20.60;1.00;;;;;;7370011;19;20014;-74
2023/05/05 10:51:51;;;;;;;6.63;2.10;;;20.50;1.00;;;;;;7372901;19;20014;-75
2023/05/05 10:54:31;;;;;;;4.93;3.17;;;20.40;1.00;;;;;;7370802;19;20029;-72
2023/05/05 10:57:03;;;;;;;5.05;2.40;;;20.30;1.00;;;;;;7392011;19;20010;-75
2023/05/05 10:59:41;;;;;;;5.15;1.98;;;20.30;1.00;;;;;;7368720;19;20080;-74
2023/05/05 11:02:25;;;;;;;3.15;2.05;;;20.10;1.00;;;;;;7371294;19;20502;-74
2023/05/05 11:05:13;;;;;;;4.33;1.80;;;20.40;1.00;;;;;;7369116;19;20022;-75
2023/05/05 11:07:45;;;;;;;4.45;2.30;;;20.50;1.00;;;;;;7367253;19;20021;-75
2023/05/05 11:10:19;;;;;;;5.05;2.22;;;20.30;1.00;;;;;;7367905;19;20006;-72
2023/05/05 11:13:20;;;;;;;4.05;2.30;;;20.30;1.00;;;;;;7371930;19;20006;-75
2023/05/05 11:15:52;;;;;;;4.90;2.70;;;20.30;1.00;;;;;;7369375;19;20010;-75
2023/05/05 11:18:35;;;;;;;8.77;2.97;;;20.30;1.00;;;;;;7369889;19;20428;-74
2023/05/05 11:21:19;;;;;;;4.05;2.67;;;20.60;1.00;;;;;;7389681;19;20466;-72
2023/05/05 11:23:51;;;;;;;3.08;2.10;;;20.60;1.00;;;;;;7369744;19;20021;-74
2023/05/05 11:26:50;;;;;;;7.05;2.85;;;20.60;1.00;;;;;;7369530;19;20672;-73
2023/05/05 11:29:20;;;;;;;6.40;2.50;;;20.60;1.00;;;;;;7367859;19;20008;-73
2023/05/05 11:32:15;;;;;;;4.15;2.58;;;20.40;1.00;;;;;;7370138;19;20010;-74
2023/05/05 11:34:51;;;;;;;4.00;2.50;;;20.60;1.00;;;;;;7371037;19;20018;-74
2023/05/05 11:37:25;;;;;;;4.45;2.30;;;21.00;1.00;;;;;;7368807;19;20017;-74
2023/05/05 11:40:05;;;;;;;3.57;1.90;;;21.00;1.00;;;;;;7368342;19;20002;-73
2023/05/05 11:42:38;;;;;;;5.63;1.90;;;20.80;1.00;;;;;;7369842;19;20201;-73
2023/05/05 11:45:22;;;;;;;3.70;2.20;;;20.90;1.00;;;;;;7391449;19;20016;-73
2023/05/05 11:47:52;;;;;;;3.43;1.97;;;21.30;1.00;;;;;;7369098;19;20007;-73
2023/05/05 11:50:23;;;;;;;3.50;1.80;;;22.10;1.00;;;;;;7366105;19;20010;-73
2023/05/05 11:52:53;;;;;;;3.58;1.88;;;22.30;1.00;;;;;;7369489;19;20415;-73
2023/05/05 11:55:24;;;;;;;4.50;2.20;;;22.10;1.00;;;;;;7368990;19;20071;-74
2023/05/05 11:57:56;;;;;;;3.88;2.03;;;22.30;1.00;;;;;;7368638;19;20025;-73
2023/05/05 12:00:36;;;;;;;6.55;2.35;;;22.40;1.00;;;;;;7367481;19;20018;-73
2023/05/05 12:03:07;;;;;;;4.70;1.98;;;22.10;1.00;;;;;;7391732;19;20058;-74
2023/05/05 12:05:37;;;;;;;3.05;1.98;;;22.40;1.00;;;;;;7370062;19;20090;-74
2023/05/05 12:08:07;;;;;;;3.58;1.98;;;22.30;1.00;;;;;;7366284;19;20015;-74
2023/05/05 12:10:37;;;;;;;3.25;2.03;;;22.00;1.00;;;;;;7369349;19;20052;-73
2023/05/05 12:13:19;;;;;;;3.92;2.13;;;22.40;1.00;;;;;;7369019;19;20014;-75
2023/05/05 12:15:49;;;;;;;2.53;1.58;;;22.70;1.00;;;;;;7391668;19;20011;-74
2023/05/05 12:18:20;;;;;;;2.28;1.92;;;22.90;1.00;;;;;;7361973;19;20014;-74
2023/05/05 12:20:51;;;;;;;4.00;1.88;;;23.00;1.00;;;;;;7389323;19;20007;-74
2023/05/05 12:23:21;;;;;;;3.42;1.88;;;22.90;1.00;;;;;;7354544;19;20015;-72
2023/05/05 12:25:52;;;;;;;7.28;2.15;;;22.90;1.00;;;;;;7369893;19;20033;-73
2023/05/05 12:28:24;;;;;;;3.00;1.77;;;22.60;1.00;;;;;;7385334;19;20019;-73
2023/05/05 12:31:00;;;;;;;6.10;1.83;;;22.10;1.00;;;;;;7365032;19;20021;-73
2023/05/05 12:33:30;;;;;;;2.17;1.50;;;22.70;1.00;;;;;;7390034;19;20019;-73
2023/05/05 12:36:00;;;;;;;3.53;1.90;;;22.50;1.00;;;;;;7367383;19;20002;-74
2023/05/05 12:38:30;;;;;;;2.42;2.10;;;22.50;1.00;;;;;;7362934;19;20411;-74
2023/05/05 12:41:00;;;;;;;3.63;1.85;;;23.00;1.00;;;;;;7366224;19;20486;-72
2023/05/05 12:43:34;;;;;;;6.03;1.73;;;22.70;1.00;;;;;;7366181;19;20010;-73
2023/05/05 12:46:10;;;;;;;4.82;1.80;;;22.80;1.00;;;;;;7368665;19;20078;-73
2023/05/05 12:48:42;;;;;;;3.65;1.77;;;22.70;1.00;;;;;;7387028;19;20011;-74
2023/05/05 12:51:22;;;;;;;3.13;1.80;;;23.10;1.00;;;;;;7364994;19;20010;-74
2023/05/05 12:54:04;;;;;;;5.05;1.90;;;22.80;1.00;;;;;;7365356;19;20494;-72
2023/05/05 12:56:36;;;;;;;2.88;1.80;;;23.30;1.00;;;;;;7367030;19;20398;-72
2023/05/05 12:59:10;;;;;;;2.28;1.52;;;23.10;1.00;;;;;;7386174;19;20018;-72
2023/05/05 13:01:50;;;;;;;2.80;2.13;;;23.20;1.00;;;;;;7379737;19;20110;-72
2023/05/05 13:04:21;;;;;;;4.05;1.77;;;23.20;1.00;;;;;;7365532;19;20030;-72
2023/05/05 13:07:09;;;;;;;3.53;1.83;;;23.10;1.00;;;;;;7359866;19;20560;-72
2023/05/05 13:09:39;;;;;;;2.88;1.90;;;22.80;1.00;;;;;;7359405;19;20024;-73
2023/05/05 13:12:10;;;;;;;2.85;1.73;;;22.80;1.00;;;;;;7367440;19;20022;-73
2023/05/05 13:14:43;;;;;;;4.50;2.00;;;22.70;1.00;;;;;;7363816;19;20056;-73
2023/05/05 13:17:13;;;;;;;3.53;1.75;;;23.10;1.00;;;;;;7363004;19;20014;-73
2023/05/05 13:19:45;;;;;;;3.47;1.95;;;23.00;1.00;;;;;;7386730;19;20025;-72
2023/05/05 13:22:15;;;;;;;3.05;1.75;;;23.20;1.00;;;;;;7362205;19;20459;-72
2023/05/05 13:24:45;;;;;;;3.83;2.03;;;23.00;1.00;;;;;;7363566;19;20014;-74